Nearby METAR Reports

 

KSJC - San Jose, California, USA
Distance from station: NE 9mi, 14km
Updated: 07/17/2019 9:53pm
Partly cloudy
Partly cloudy
 Wind from NW
Wind: NW 12 mph , 19 km/h
Temperature: 79°F , 26°C
Dew Point: 61°F , 16°C
Humidity: 54%
Barometer: 29.87 inHg , 1011.5 hPa
Clouds: Partly cloudy
Visibility: 10 miles , 16 km
Cloud details: Few Clouds 7500 ft
Few Clouds 10000 ft
Partly cloudy 16000 ft
2019/07/18 01:53 KSJC 180153Z 32010KT 10SM FEW075 FEW100 SCT160 26/16 A2987 RMK AO2 SLP115 T02560161
KNUQ - Moffett Nas/Mtn, California, USA
Distance from station: N 9mi, 14km
Updated: 07/17/2019 9:56pm
Clear
Clear
 Wind from NNW
Wind: NNW 9 mph , 15 km/h
Temperature: 75°F , 24°C
Dew Point: 61°F , 16°C
Humidity: 61%
Barometer: 29.88 inHg , 1011.9 hPa
Clouds: Clear
Visibility: 10 miles , 16 km
2019/07/18 01:56 KNUQ 180156Z 34008KT 10SM CLR 24/16 A2988 RMK AO2 SLP121 T02390156 $
KPAO - Palo Alto, California, USA
Distance from station: NNW 14mi, 23km
Updated: 07/17/2019 10:47pm
Partly cloudy
Partly cloudy
 Wind from NNW
Wind: NNW 12 mph , 19 km/h
Temperature: 70°F , 21°C
Dew Point: 63°F , 17°C
Humidity: 78%
Barometer: 29.88 inHg , 1011.9 hPa
Clouds: Partly cloudy
Visibility: 10 miles , 16 km
Cloud details: Partly cloudy 12000 ft
2019/07/18 02:47 KPAO 180247Z 34010KT 10SM SCT120 21/17 A2988
 
KRHV - San Jose/Reid, California, USA
Distance from station: ENE 12mi, 19km
Updated: 07/17/2019 9:47pm
Clear
Clear
 Wind from NW
Wind: NW 8 mph , 13 km/h
Temperature: 81°F , 27°C
Heat Index: 81°F , 27°C
Dew Point: 57°F , 14°C
Humidity: 45%
Barometer: 29.88 inHg , 1011.9 hPa
Clouds: Clear
Visibility: 10 miles , 16 km
2019/07/18 01:47 KRHV 180147Z 31007KT 10SM SKC 27/14 A2988
KOAK - Oakland, California, USA
Distance from station: NNW 31mi, 50km
Updated: 07/17/2019 9:53pm
Partly cloudy
Partly cloudy
 Wind from NW
Wind: NW 10 mph , 17 km/h
Temperature: 72°F , 22°C
Dew Point: 55°F , 13°C
Humidity: 57%
Barometer: 29.89 inHg , 1012.2 hPa
Clouds: Partly cloudy
Visibility: 10 miles , 16 km
Cloud details: Partly cloudy 20000 ft
2019/07/18 01:53 KOAK 180153Z 31009KT 10SM SCT200 22/13 A2989 RMK AO2 SLP122 T02220133 $
KSQL - San Carlos Airpo, California, USA
Distance from station: NW 21mi, 34km
Updated: 07/17/2019 10:47pm
Clear
Clear
 Wind from WNW
Wind: WNW 7 mph , 11 km/h
Temperature: 77°F , 25°C
Dew Point: 55°F , 13°C
Humidity: 47%
Barometer: 29.88 inHg , 1011.9 hPa
Clouds: Clear
Visibility: 10 miles , 16 km
2019/07/18 02:47 KSQL 180247Z 30006KT 10SM SKC 25/13 A2988
 
KSFO - San Francisco, California, USA
Distance from station: NW 30mi, 49km
Updated: 07/17/2019 9:56pm
Partly cloudy
Partly cloudy
 Wind from WNW
Wind: WNW 20 mph , 31 km/h
Temperature: 66°F , 19°C
Dew Point: 54°F , 12°C
Humidity: 64%
Barometer: 29.88 inHg , 1011.9 hPa
Clouds: Partly cloudy
Visibility: 10 miles , 16 km
Cloud details: Few Clouds 800 ft
Partly cloudy 20000 ft
2019/07/18 01:56 KSFO 180156Z 29017KT 10SM FEW008 SCT200 19/12 A2988 RMK AO2 SLP118 T01890122
KE16 - San Martin, California, USA
Distance from station: ESE 27mi, 43km
Updated: 07/17/2019 10:05pm
Clear
Clear
 Wind from SE
Wind: SE 15 mph , 24 km/h
Temperature: 73°F , 23°C
Dew Point: 54°F , 12°C
Humidity: 50%
Barometer: 29.90 inHg , 1012.5 hPa
Clouds: Clear
Visibility: 10 miles , 16 km
2019/07/18 02:05 KE16 180205Z AUTO 13013KT 10SM CLR 23/12 A2990 RMK AO2 PWINO PNO
KWVI - Watsonville, California, USA
Distance from station: SSE 27mi, 44km
Updated: 07/17/2019 9:53pm
Clear
Clear
 Wind from SW
Wind: SW 8 mph , 13 km/h
Temperature: 63°F , 17°C
Dew Point: 54°F , 12°C
Humidity: 73%
Barometer: 29.94 inHg , 1013.9 hPa
Clouds: Clear
Visibility: 10 miles , 16 km
2019/07/18 01:53 KWVI 180153Z AUTO 23007KT 10SM CLR 17/12 A2994 RMK AO2 SLP138 T01720117
 
KHAF - Half Moon Bay, California, USA
Distance from station: WNW 31mi, 50km
Updated: 07/17/2019 10:40pm
Mist, Overcast
Mist, Overcast
 Wind from S
Wind: S 3 mph , 6 km/h
Temperature: 55°F , 13°C
Dew Point: 54°F , 12°C
Humidity: 94%
Barometer: 29.94 inHg , 1013.9 hPa
Summary: Mist
Clouds: Overcast
Visibility: 3/4 mile , 1.2 km
Cloud details: Overcast 300 ft
2019/07/18 02:40 KHAF 180240Z AUTO 18003KT 3/4SM BR OVC003 13/12 A2994 RMK AO2
KHWD - Hayward, California, USA
Distance from station: N 28mi, 44km
Updated: 07/17/2019 9:54pm
Clear
Clear
 Wind from W
Wind: W 10 mph , 17 km/h
Temperature: 75°F , 24°C
Dew Point: 55°F , 13°C
Humidity: 50%
Barometer: 29.88 inHg , 1011.9 hPa
Clouds: Clear
Visibility: 10 miles , 16 km
2019/07/18 01:54 KHWD 180154Z 28009KT 10SM CLR 24/13 A2988 RMK AO2 SLP126 T02390133
KLVK - Livermore, California, USA
Distance from station: NNE 31mi, 51km
Updated: 07/17/2019 9:53pm
Clear
Clear
 Wind from WNW
Wind: WNW 14 mph , 22 km/h
Temperature: 82°F , 28°C
Dew Point: 54°F , 12°C
Humidity: 37%
Barometer: 29.85 inHg , 1010.8 hPa
Clouds: Clear
Visibility: 10 miles , 16 km
2019/07/18 01:53 KLVK 180153Z 29012KT 10SM CLR 28/12 A2985 RMK AO2 SLP105 T02780117